Αναφορές Αεροδρομίων

 

KSJC - San Jose, California, USA
Distance from station: ΒΑ 14km
Ενημερώθηκε: 25/07/2024 21:53
Αίθριος
Αίθριος
 Ανεμος από ΒΔ
Ανεμος: ΒΔ 11 km/h
Θερμοκρασία: 28°C
Heat Index: 28°C
Σημείο Δρόσου: 16°C
Υγρασία: 48%
Βαρόμετρο: 1017.9 hPa
Clouds: Αίθριος
Visibility: 16 km
2024/07/25 18:53 KSJC 251853Z 31006KT 10SM CLR 28/16 A3006 RMK AO2 SLP178 T02830161
KNUQ - Moffett Nas/Mtn, California, USA
Distance from station: Β 14km
Ενημερώθηκε: 25/07/2024 22:10
Αίθριος
Αίθριος
 Ανεμος από Β
Ανεμος: Β 19 km/h
Θερμοκρασία: 24°C
Σημείο Δρόσου: 18°C
Υγρασία: 69%
Βαρόμετρο: 1018.3 hPa
Clouds: Αίθριος
Visibility: 13 km
2024/07/25 19:10 KNUQ 251910Z AUTO 35010KT 8SM CLR 24/18 A3007 RMK AO2
 
KPAO - Palo Alto, California, USA
Distance from station: ΒΒΔ 23km
Ενημερώθηκε: 25/07/2024 21:47
Αίθριος
Αίθριος
 Ανεμος από ΒΒΔ
Ανεμος: ΒΒΔ 17 km/h
Θερμοκρασία: 23°C
Σημείο Δρόσου: 17°C
Υγρασία: 69%
Βαρόμετρο: 1018.3 hPa
Clouds: Αίθριος
Visibility: 16 km
2024/07/25 18:47 KPAO 251847Z 33009KT 10SM SKC 23/17 A3007
KRHV - San Jose/Reid, California, USA
Distance from station: ΑΒΑ 19km
Ενημερώθηκε: 25/07/2024 21:47
Αίθριος
Αίθριος
 Ανεμος από calm
Ανεμος: Απνοια
Θερμοκρασία: 30°C
Σημείο Δρόσου: 12°C
Υγρασία: 33%
Βαρόμετρο: 1017.9 hPa
Clouds: Αίθριος
Visibility: 16 km
2024/07/25 18:47 KRHV 251847Z 00000KT 10SM SKC 30/12 A3006
 
KOAK - Oakland, California, USA
Distance from station: ΒΒΔ 50km
Ενημερώθηκε: 25/07/2024 21:53
Αίθριος
Αίθριος
 Ανεμος από ΔΒΔ
Ανεμος: ΔΒΔ 22 km/h
Θερμοκρασία: 23°C
Σημείο Δρόσου: 16°C
Υγρασία: 65%
Βαρόμετρο: 1018.6 hPa
Clouds: Αίθριος
Visibility: 16 km
2024/07/25 18:53 KOAK 251853Z 30012KT 10SM CLR 23/16 A3008 RMK AO2 SLP185 T02280156
KSQL - San Carlos Airpo, California, USA
Distance from station: ΒΔ 34km
Ενημερώθηκε: 25/07/2024 21:47
Αίθριος
Αίθριος
 Ανεμος από Β
Ανεμος: Β 15 km/h
Θερμοκρασία: 23°C
Σημείο Δρόσου: 17°C
Υγρασία: 69%
Βαρόμετρο: 1019 hPa
Clouds: Αίθριος
Visibility: 16 km
2024/07/25 18:47 KSQL 251847Z 36008KT 10SM CLR 23/17 A3009
 
KSFO - San Francisco, California, USA
Distance from station: ΒΔ 49km
Ενημερώθηκε: 25/07/2024 22:00
Few Clouds
Few Clouds
 Ανεμος από Δ
Ανεμος: Δ 24 km/h
Θερμοκρασία: 19°C
Σημείο Δρόσου: 10°C
Υγρασία: 56%
Βαρόμετρο: 1018.6 hPa
Clouds: Few Clouds
Visibility: 16 km
Cloud details: Few Clouds 183 m
2024/07/25 19:00 KSFO 251900Z 27013KT 10SM FEW006 19/10 A3008 RMK AO2 T01890100 VISNO $
KE16 - San Martin, California, USA
Distance from station: ΑΝΑ 43km
Ενημερώθηκε: 25/07/2024 22:15
Αίθριος
Αίθριος
 Ανεμος από Ν
Ανεμος: Ν 9 km/h
Θερμοκρασία: 31°C
Σημείο Δρόσου: 9°C
Υγρασία: 25%
Βαρόμετρο: 1018.3 hPa
Clouds: Αίθριος
Visibility: 16 km
2024/07/25 19:15 KE16 251915Z AUTO 19005KT 10SM CLR 31/09 A3007 RMK AO2
 
KWVI - Watsonville, California, USA
Distance from station: ΝΝΑ 44km
Ενημερώθηκε: 25/07/2024 21:53
Αίθριος
Αίθριος
 Ανεμος από ΝΝΔ
Ανεμος: ΝΝΔ 17 km/h
Θερμοκρασία: 24°C
Σημείο Δρόσου: 16°C
Υγρασία: 61%
Βαρόμετρο: 1019 hPa
Clouds: Αίθριος
Visibility: 16 km
2024/07/25 18:53 KWVI 251853Z AUTO 21009KT 10SM CLR 24/16 A3009 RMK AO2 SLP189 T02440161
KHAF - Half Moon Bay, California, USA
Distance from station: ΔΒΔ 50km
Ενημερώθηκε: 25/07/2024 22:15
Mist, Συννεφιά
Mist, Συννεφιά
 Ανεμος από ΝΝΔ
Ανεμος: ΝΝΔ 11 km/h
Θερμοκρασία: 16°C
Σημείο Δρόσου: 15°C
Υγρασία: 94%
Βαρόμετρο: 1020 hPa
Περίληψη: Mist
Clouds: Συννεφιά
Visibility: 10 km
Cloud details: Συννεφιά 152 m
2024/07/25 19:15 KHAF 251915Z AUTO 21006KT 6SM BR OVC005 16/15 A3012 RMK AO2
 
KHWD - Hayward, California, USA
Distance from station: Β 44km
Ενημερώθηκε: 25/07/2024 21:54
Αίθριος
Αίθριος
 Ανεμος από Δ
Ανεμος: Δ 19 km/h
Θερμοκρασία: 26°C
Σημείο Δρόσου: 16°C
Υγρασία: 54%
Βαρόμετρο: 1018.3 hPa
Clouds: Αίθριος
Visibility: 16 km
2024/07/25 18:54 KHWD 251854Z 28010KT 10SM CLR 26/16 A3007 RMK AO2 SLP190 T02560156
KLVK - Livermore, California, USA
Distance from station: ΒΒΑ 51km
Ενημερώθηκε: 25/07/2024 21:53
Αίθριος
Αίθριος
 Ανεμος από Δ
Ανεμος: Δ 19 km/h
Θερμοκρασία: 33°C
Σημείο Δρόσου: 7°C
Υγρασία: 20%
Βαρόμετρο: 1017.3 hPa
Clouds: Αίθριος
Visibility: 16 km
2024/07/25 18:53 KLVK 251853Z 28010KT 10SM CLR 33/07 A3004 RMK AO2 SLP167 T03330072